sensor_id;sensor_type;location;lat;lon;timestamp;pressure;altitude;pressure_sealevel;temperature
25514;BMP180;48128;54.242;10.280;2023-06-24T16:52:40;101864.00;;;24.50
25514;BMP180;48128;54.242;10.280;2023-06-24T16:55:07;101865.00;;;24.50
25514;BMP180;48128;54.242;10.280;2023-06-24T16:57:34;101850.00;;;24.40
25514;BMP180;48128;54.242;10.280;2023-06-24T17:00:01;101853.00;;;24.40
25514;BMP180;48128;54.242;10.280;2023-06-24T17:02:28;101848.00;;;24.30
25514;BMP180;48128;54.242;10.280;2023-06-24T17:04:58;101840.00;;;24.20
25514;BMP180;48128;54.242;10.280;2023-06-24T17:07:25;101831.00;;;24.20
25514;BMP180;48128;54.242;10.280;2023-06-24T17:09:53;101838.00;;;24.10
25514;BMP180;48128;54.242;10.280;2023-06-24T17:12:22;101825.00;;;24.00
25514;BMP180;48128;54.242;10.280;2023-06-24T17:14:49;101828.00;;;24.00
25514;BMP180;48128;54.242;10.280;2023-06-24T17:17:16;101831.00;;;24.10
25514;BMP180;48128;54.242;10.280;2023-06-24T17:19:43;101830.00;;;24.10
25514;BMP180;48128;54.242;10.280;2023-06-24T17:22:10;101836.00;;;24.10
25514;BMP180;48128;54.242;10.280;2023-06-24T17:24:38;101824.00;;;24.10
25514;BMP180;48128;54.242;10.280;2023-06-24T17:27:05;101836.00;;;24.10
25514;BMP180;48128;54.242;10.280;2023-06-24T17:29:32;101825.00;;;24.10
25514;BMP180;48128;54.242;10.280;2023-06-24T17:31:59;101832.00;;;23.90
25514;BMP180;48128;54.242;10.280;2023-06-24T17:34:27;101835.00;;;23.80
25514;BMP180;48128;54.242;10.280;2023-06-24T17:36:54;101830.00;;;23.70
25514;BMP180;48128;54.242;10.280;2023-06-24T17:39:21;101830.00;;;23.70
25514;BMP180;48128;54.242;10.280;2023-06-24T17:41:50;101818.00;;;23.70
25514;BMP180;48128;54.242;10.280;2023-06-24T17:44:17;101819.00;;;23.60
25514;BMP180;48128;54.242;10.280;2023-06-24T17:46:44;101818.00;;;23.60
25514;BMP180;48128;54.242;10.280;2023-06-24T17:49:11;101822.00;;;23.60
25514;BMP180;48128;54.242;10.280;2023-06-24T17:51:38;101825.00;;;23.60
25514;BMP180;48128;54.242;10.280;2023-06-24T17:54:05;101812.00;;;23.60
25514;BMP180;48128;54.242;10.280;2023-06-24T17:56:32;101817.00;;;23.60
25514;BMP180;48128;54.242;10.280;2023-06-24T17:58:59;101807.00;;;23.60
25514;BMP180;48128;54.242;10.280;2023-06-24T18:01:26;101810.00;;;23.60
25514;BMP180;48128;54.242;10.280;2023-06-24T18:03:56;101800.00;;;23.60
25514;BMP180;48128;54.242;10.280;2023-06-24T18:06:23;101816.00;;;23.60
25514;BMP180;48128;54.242;10.280;2023-06-24T18:08:50;101797.00;;;23.50
25514;BMP180;48128;54.242;10.280;2023-06-24T18:11:18;101817.00;;;23.60
25514;BMP180;48128;54.242;10.280;2023-06-24T20:10:16;101753.00;;;21.50
25514;BMP180;48128;54.242;10.280;2023-06-24T20:12:43;101765.00;;;21.40
25514;BMP180;48128;54.242;10.280;2023-06-24T20:15:11;101745.00;;;21.30
25514;BMP180;48128;54.242;10.280;2023-06-24T20:17:38;101742.00;;;21.30
25514;BMP180;48128;54.242;10.280;2023-06-24T20:20:08;101749.00;;;21.20
25514;BMP180;48128;54.242;10.280;2023-06-24T20:22:35;101734.00;;;21.10
25514;BMP180;48128;54.242;10.280;2023-06-24T20:25:02;101754.00;;;21.00
25514;BMP180;48128;54.242;10.280;2023-06-24T20:27:29;101743.00;;;21.00
25514;BMP180;48128;54.242;10.280;2023-06-24T20:29:59;101766.00;;;20.90
25514;BMP180;48128;54.242;10.280;2023-06-24T20:32:26;101749.00;;;20.90
25514;BMP180;48128;54.242;10.280;2023-06-24T20:34:53;101752.00;;;20.80
25514;BMP180;48128;54.242;10.280;2023-06-24T20:37:20;101747.00;;;20.70
25514;BMP180;48128;54.242;10.280;2023-06-24T20:39:47;101740.00;;;20.70
25514;BMP180;48128;54.242;10.280;2023-06-24T20:42:14;101742.00;;;20.60
25514;BMP180;48128;54.242;10.280;2023-06-24T20:44:41;101749.00;;;20.50
25514;BMP180;48128;54.242;10.280;2023-06-24T20:47:08;101755.00;;;20.40
25514;BMP180;48128;54.242;10.280;2023-06-24T20:49:35;101754.00;;;20.30
25514;BMP180;48128;54.242;10.280;2023-06-24T20:52:02;101748.00;;;20.30
25514;BMP180;48128;54.242;10.280;2023-06-24T20:54:28;101736.00;;;20.20
25514;BMP180;48128;54.242;10.280;2023-06-24T20:56:57;101733.00;;;20.10
25514;BMP180;48128;54.242;10.280;2023-06-24T20:59:24;101738.00;;;20.10
25514;BMP180;48128;54.242;10.280;2023-06-24T21:01:51;101733.00;;;20.00
25514;BMP180;48128;54.242;10.280;2023-06-24T21:04:17;101729.00;;;19.90
25514;BMP180;48128;54.242;10.280;2023-06-24T21:06:44;101734.00;;;19.80
25514;BMP180;48128;54.242;10.280;2023-06-24T21:09:12;101736.00;;;19.70
25514;BMP180;48128;54.242;10.280;2023-06-24T21:11:39;101742.00;;;19.60
25514;BMP180;48128;54.242;10.280;2023-06-24T21:14:05;101736.00;;;19.50
25514;BMP180;48128;54.242;10.280;2023-06-24T21:16:32;101736.00;;;19.50
25514;BMP180;48128;54.242;10.280;2023-06-24T21:18:59;101739.00;;;19.30
25514;BMP180;48128;54.242;10.280;2023-06-24T21:21:26;101732.00;;;19.30
25514;BMP180;48128;54.242;10.280;2023-06-24T21:23:55;101734.00;;;19.20
25514;BMP180;48128;54.242;10.280;2023-06-24T21:26:21;101728.00;;;19.10
25514;BMP180;48128;54.242;10.280;2023-06-24T21:28:48;101729.00;;;19.00
25514;BMP180;48128;54.242;10.280;2023-06-24T21:31:15;101733.00;;;19.00
25514;BMP180;48128;54.242;10.280;2023-06-24T21:33:42;101726.00;;;18.90
25514;BMP180;48128;54.242;10.280;2023-06-24T21:36:10;101724.00;;;18.80
25514;BMP180;48128;54.242;10.280;2023-06-24T21:38:37;101726.00;;;18.80
25514;BMP180;48128;54.242;10.280;2023-06-24T21:41:04;101731.00;;;18.70
25514;BMP180;48128;54.242;10.280;2023-06-24T21:43:31;101731.00;;;18.70
25514;BMP180;48128;54.242;10.280;2023-06-24T21:46:00;101732.00;;;18.60
25514;BMP180;48128;54.242;10.280;2023-06-24T21:48:27;101721.00;;;18.50
25514;BMP180;48128;54.242;10.280;2023-06-24T21:50:54;101730.00;;;18.40
25514;BMP180;48128;54.242;10.280;2023-06-24T21:53:21;101725.00;;;18.40
25514;BMP180;48128;54.242;10.280;2023-06-24T21:55:48;101718.00;;;18.30
25514;BMP180;48128;54.242;10.280;2023-06-24T21:58:15;101727.00;;;18.20
25514;BMP180;48128;54.242;10.280;2023-06-24T22:00:42;101717.00;;;18.20
25514;BMP180;48128;54.242;10.280;2023-06-24T22:03:10;101714.00;;;18.10
25514;BMP180;48128;54.242;10.280;2023-06-24T22:05:37;101717.00;;;18.10
25514;BMP180;48128;54.242;10.280;2023-06-24T22:08:04;101725.00;;;18.00
25514;BMP180;48128;54.242;10.280;2023-06-24T22:10:31;101724.00;;;17.90
25514;BMP180;48128;54.242;10.280;2023-06-24T22:12:58;101729.00;;;17.80
25514;BMP180;48128;54.242;10.280;2023-06-24T22:15:25;101724.00;;;17.80
25514;BMP180;48128;54.242;10.280;2023-06-24T22:17:52;101723.00;;;17.70
25514;BMP180;48128;54.242;10.280;2023-06-24T22:20:19;101718.00;;;17.70
25514;BMP180;48128;54.242;10.280;2023-06-24T22:22:46;101722.00;;;17.60
25514;BMP180;48128;54.242;10.280;2023-06-24T22:25:13;101722.00;;;17.50
25514;BMP180;48128;54.242;10.280;2023-06-24T22:27:40;101727.00;;;17.40
25514;BMP180;48128;54.242;10.280;2023-06-24T22:30:07;101733.00;;;17.40
25514;BMP180;48128;54.242;10.280;2023-06-24T22:32:35;101729.00;;;17.30
25514;BMP180;48128;54.242;10.280;2023-06-24T22:35:02;101735.00;;;17.20
25514;BMP180;48128;54.242;10.280;2023-06-24T22:37:29;101729.00;;;17.20
25514;BMP180;48128;54.242;10.280;2023-06-24T22:39:56;101740.00;;;17.20
25514;BMP180;48128;54.242;10.280;2023-06-24T22:42:23;101728.00;;;17.10
25514;BMP180;48128;54.242;10.280;2023-06-24T22:44:50;101727.00;;;17.10
25514;BMP180;48128;54.242;10.280;2023-06-24T22:47:17;101725.00;;;17.00
25514;BMP180;48128;54.242;10.280;2023-06-24T22:49:44;101726.00;;;17.00
25514;BMP180;48128;54.242;10.280;2023-06-24T22:52:11;101729.00;;;16.90
25514;BMP180;48128;54.242;10.280;2023-06-24T22:54:38;101732.00;;;16.90
25514;BMP180;48128;54.242;10.280;2023-06-24T22:57:05;101731.00;;;16.90
25514;BMP180;48128;54.242;10.280;2023-06-24T22:59:32;101731.00;;;16.80
25514;BMP180;48128;54.242;10.280;2023-06-24T23:01:59;101728.00;;;16.70
25514;BMP180;48128;54.242;10.280;2023-06-24T23:04:26;101728.00;;;16.70
25514;BMP180;48128;54.242;10.280;2023-06-24T23:06:56;101731.00;;;16.60
25514;BMP180;48128;54.242;10.280;2023-06-24T23:09:24;101729.00;;;16.60
25514;BMP180;48128;54.242;10.280;2023-06-24T23:11:51;101734.00;;;16.50
25514;BMP180;48128;54.242;10.280;2023-06-24T23:14:23;101732.00;;;16.50
25514;BMP180;48128;54.242;10.280;2023-06-24T23:16:50;101728.00;;;16.40
25514;BMP180;48128;54.242;10.280;2023-06-24T23:19:17;101726.00;;;16.40
25514;BMP180;48128;54.242;10.280;2023-06-24T23:21:44;101726.00;;;16.40
25514;BMP180;48128;54.242;10.280;2023-06-24T23:24:11;101726.00;;;16.30
25514;BMP180;48128;54.242;10.280;2023-06-24T23:26:40;101727.00;;;16.30
25514;BMP180;48128;54.242;10.280;2023-06-24T23:29:23;101723.00;;;16.20
25514;BMP180;48128;54.242;10.280;2023-06-24T23:31:52;101724.00;;;16.20
25514;BMP180;48128;54.242;10.280;2023-06-24T23:34:19;101726.00;;;16.10
25514;BMP180;48128;54.242;10.280;2023-06-24T23:36:47;101722.00;;;16.10
25514;BMP180;48128;54.242;10.280;2023-06-24T23:39:14;101716.00;;;16.10
25514;BMP180;48128;54.242;10.280;2023-06-24T23:41:42;101718.00;;;16.00
25514;BMP180;48128;54.242;10.280;2023-06-24T23:44:09;101717.00;;;16.00
25514;BMP180;48128;54.242;10.280;2023-06-24T23:46:36;101719.00;;;16.00
25514;BMP180;48128;54.242;10.280;2023-06-24T23:49:03;101726.00;;;16.00
25514;BMP180;48128;54.242;10.280;2023-06-24T23:51:30;101718.00;;;16.00
25514;BMP180;48128;54.242;10.280;2023-06-24T23:53:57;101715.00;;;16.00
25514;BMP180;48128;54.242;10.280;2023-06-24T23:56:24;101720.00;;;16.00
25514;BMP180;48128;54.242;10.280;2023-06-24T23:58:50;101720.00;;;16.00
